Time;durP1;ratioP1;P1;durP2;ratioP2;P2;SDS_P1;SDS_P2;PMS_P1;PMS_P2;Temp;Humidity;BMP_temperature;BMP_pressure;BME280_temperature;BME280_humidity;BME280_pressure;Samples;Min_cycle;Max_cycle;Signal;HPM_P1;HPM_P2
2023/09/14 00:02:15;;;;;;;4.60;2.58;;;;;;;;;;5108115;28;20053;-69
2023/09/14 00:04:41;;;;;;;5.25;2.38;;;;;;;;;;5108359;28;20027;-69
2023/09/14 00:07:07;;;;;;;4.70;2.53;;;;;;;;;;5107459;28;20168;-69
2023/09/14 00:09:33;;;;;;;5.38;2.30;;;;;;;;;;5096787;28;20472;-69
2023/09/14 00:11:59;;;;;;;7.22;2.47;;;;;;;;;;5104917;28;20483;-70
2023/09/14 00:14:26;;;;;;;10.10;2.88;;;;;;;;;;5105453;28;20031;-69
2023/09/14 00:16:52;;;;;;;7.65;2.85;;;;;;;;;;5094457;28;20101;-69
2023/09/14 00:19:18;;;;;;;11.93;2.88;;;;;;;;;;5098901;28;20059;-69
2023/09/14 00:21:44;;;;;;;5.03;2.50;;;;;;;;;;5103985;28;20023;-69
2023/09/14 00:24:10;;;;;;;5.78;2.50;;;;;;;;;;5106025;28;20020;-69
2023/09/14 00:26:36;;;;;;;7.80;2.38;;;;;;;;;;5084610;28;20023;-68
2023/09/14 00:29:02;;;;;;;10.15;2.67;;;;;;;;;;5101791;28;20101;-69
2023/09/14 00:31:28;;;;;;;9.13;2.70;;;;;;;;;;5098822;28;20032;-68
2023/09/14 00:33:56;;;;;;;8.38;2.75;;;;;;;;;;5104465;28;20184;-68
2023/09/14 00:36:22;;;;;;;9.68;3.63;;;;;;;;;;5087943;28;20038;-69
2023/09/14 00:38:48;;;;;;;12.27;3.83;;;;;;;;;;5104519;28;20387;-69
2023/09/14 00:41:15;;;;;;;11.07;2.83;;;;;;;;;;5101123;28;20028;-69
2023/09/14 00:43:41;;;;;;;8.38;2.60;;;;;;;;;;5107714;28;20038;-69
2023/09/14 00:46:07;;;;;;;10.77;2.75;;;;;;;;;;5103984;28;20356;-69
2023/09/14 00:48:35;;;;;;;7.85;2.72;;;;;;;;;;5092659;28;20055;-69
2023/09/14 00:51:03;;;;;;;8.10;2.92;;;;;;;;;;5105803;28;20032;-69
2023/09/14 00:53:33;;;;;;;8.90;3.80;;;;;;;;;;5107629;28;20027;-69
2023/09/14 00:55:59;;;;;;;6.93;3.20;;;;;;;;;;5105280;28;20031;-70
2023/09/14 00:58:25;;;;;;;9.10;4.20;;;;;;;;;;5101802;28;20374;-69
2023/09/14 01:00:51;;;;;;;9.88;3.22;;;;;;;;;;5106539;28;20621;-69
2023/09/14 01:03:18;;;;;;;7.82;4.95;;;;;;;;;;5105650;28;20387;-69
2023/09/14 01:05:45;;;;;;;7.47;3.45;;;;;;;;;;5095108;28;20026;-69
2023/09/14 01:08:11;;;;;;;10.90;3.55;;;;;;;;;;5107375;28;20466;-70
2023/09/14 01:10:37;;;;;;;10.20;3.35;;;;;;;;;;5103262;28;20020;-70
2023/09/14 01:13:03;;;;;;;7.35;3.42;;;;;;;;;;5077161;28;20024;-69
2023/09/14 01:15:36;;;;;;;6.88;3.78;;;;;;;;;;5079725;28;20044;-69
2023/09/14 01:18:21;;;;;;;8.20;3.50;;;;;;;;;;5094341;28;20038;-69
2023/09/14 01:21:06;;;;;;;7.18;3.70;;;;;;;;;;5104779;28;20044;-70
2023/09/14 01:23:32;;;;;;;8.80;3.43;;;;;;;;;;5082766;28;20031;-69
2023/09/14 01:26:00;;;;;;;8.32;4.32;;;;;;;;;;5099889;28;20406;-69
2023/09/14 01:28:26;;;;;;;7.40;3.53;;;;;;;;;;5105649;28;20498;-69
2023/09/14 01:30:52;;;;;;;9.75;4.72;;;;;;;;;;5102423;28;20511;-70
2023/09/14 01:33:24;;;;;;;8.85;3.85;;;;;;;;;;5102795;28;20084;-70
2023/09/14 01:35:53;;;;;;;7.88;3.10;;;;;;;;;;5086687;28;20023;-69
2023/09/14 01:38:21;;;;;;;9.73;3.70;;;;;;;;;;5106226;28;20379;-69
2023/09/14 01:40:48;;;;;;;7.82;3.72;;;;;;;;;;5106494;28;20483;-70
2023/09/14 01:43:15;;;;;;;9.18;3.15;;;;;;;;;;5089254;28;20028;-70
2023/09/14 01:45:42;;;;;;;8.93;3.00;;;;;;;;;;5101341;28;20020;-70
2023/09/14 01:48:08;;;;;;;6.68;3.65;;;;;;;;;;5104587;28;20027;-70
2023/09/14 01:50:34;;;;;;;6.72;2.83;;;;;;;;;;5103142;28;20047;-70
2023/09/14 01:53:00;;;;;;;7.75;2.80;;;;;;;;;;5105984;28;20027;-69
2023/09/14 01:55:26;;;;;;;5.78;2.45;;;;;;;;;;5085621;28;20035;-70
2023/09/14 01:57:52;;;;;;;8.38;2.97;;;;;;;;;;5099515;28;20539;-70
2023/09/14 02:00:18;;;;;;;9.32;2.83;;;;;;;;;;5101540;28;20080;-69
2023/09/14 02:02:44;;;;;;;7.88;2.80;;;;;;;;;;5108338;28;20020;-69
2023/09/14 02:05:10;;;;;;;10.52;2.58;;;;;;;;;;5105105;28;20046;-69
2023/09/14 02:07:36;;;;;;;5.70;3.05;;;;;;;;;;5108590;28;20055;-69
2023/09/14 02:10:03;;;;;;;7.03;2.85;;;;;;;;;;5100976;28;20036;-70
2023/09/14 02:12:29;;;;;;;8.00;2.70;;;;;;;;;;5082621;28;20032;-69
2023/09/14 02:14:55;;;;;;;9.98;3.08;;;;;;;;;;5102088;28;20514;-69
2023/09/14 02:17:21;;;;;;;8.40;2.60;;;;;;;;;;5101680;28;20451;-69
2023/09/14 02:19:47;;;;;;;3.83;2.30;;;;;;;;;;5102531;28;20067;-69
2023/09/14 02:22:13;;;;;;;10.13;2.60;;;;;;;;;;5104663;28;20027;-69
2023/09/14 02:24:39;;;;;;;11.77;2.83;;;;;;;;;;5106978;28;20043;-70
2023/09/14 02:27:05;;;;;;;15.68;3.25;;;;;;;;;;5105310;27;20057;-69
2023/09/14 02:29:31;;;;;;;5.85;3.00;;;;;;;;;;5107497;28;20031;-69
2023/09/14 02:31:58;;;;;;;6.28;3.88;;;;;;;;;;5104908;28;20358;-69
2023/09/14 02:34:24;;;;;;;9.02;2.60;;;;;;;;;;5105857;28;20580;-69
2023/09/14 02:36:50;;;;;;;14.80;4.00;;;;;;;;;;5088719;28;20034;-69
2023/09/14 02:39:16;;;;;;;6.78;2.90;;;;;;;;;;5087767;28;20487;-69
2023/09/14 02:41:42;;;;;;;8.00;2.78;;;;;;;;;;5103583;28;20078;-69
2023/09/14 02:44:08;;;;;;;7.07;2.63;;;;;;;;;;5102654;28;20031;-69
2023/09/14 02:46:34;;;;;;;10.60;3.13;;;;;;;;;;5093587;28;20031;-69
2023/09/14 02:49:00;;;;;;;7.30;3.10;;;;;;;;;;5099230;28;20032;-69
2023/09/14 02:51:29;;;;;;;8.88;2.75;;;;;;;;;;5081762;28;20485;-69
2023/09/14 02:53:56;;;;;;;5.72;3.03;;;;;;;;;;5098668;28;20166;-69
2023/09/14 02:56:22;;;;;;;6.40;2.72;;;;;;;;;;5104606;28;20066;-70
2023/09/14 02:58:48;;;;;;;8.00;2.70;;;;;;;;;;5088650;28;20100;-69
2023/09/14 03:01:14;;;;;;;6.15;2.53;;;;;;;;;;5105520;28;20027;-69
2023/09/14 03:03:40;;;;;;;10.40;2.95;;;;;;;;;;5105528;28;20016;-69
2023/09/14 03:06:09;;;;;;;7.30;2.50;;;;;;;;;;5106882;28;20038;-70
2023/09/14 03:08:35;;;;;;;6.88;2.53;;;;;;;;;;5105616;28;20028;-70
2023/09/14 03:11:01;;;;;;;5.45;2.33;;;;;;;;;;5104094;28;20504;-69
2023/09/14 03:13:27;;;;;;;5.03;2.70;;;;;;;;;;5089802;28;20035;-69
2023/09/14 03:15:57;;;;;;;6.97;2.70;;;;;;;;;;5105143;28;20062;-69
2023/09/14 03:18:24;;;;;;;10.75;2.63;;;;;;;;;;5093251;28;20429;-69
2023/09/14 03:20:51;;;;;;;7.55;3.30;;;;;;;;;;5092460;28;20081;-69
2023/09/14 03:23:17;;;;;;;5.28;2.53;;;;;;;;;;5102545;28;20588;-69
2023/09/14 03:25:44;;;;;;;8.48;2.70;;;;;;;;;;5083783;28;20471;-69
2023/09/14 03:28:11;;;;;;;6.35;2.90;;;;;;;;;;5105018;28;20031;-69
2023/09/14 03:30:37;;;;;;;6.70;2.60;;;;;;;;;;5103552;28;20027;-69
2023/09/14 03:33:03;;;;;;;7.15;2.90;;;;;;;;;;5104234;28;20054;-70
2023/09/14 03:35:29;;;;;;;7.93;3.25;;;;;;;;;;5102073;28;20015;-69
2023/09/14 03:37:55;;;;;;;10.18;2.70;;;;;;;;;;5101779;28;20031;-69
2023/09/14 03:40:21;;;;;;;6.20;2.63;;;;;;;;;;5104170;28;20024;-69
2023/09/14 03:42:49;;;;;;;11.95;3.40;;;;;;;;;;5090830;28;20154;-69
2023/09/14 03:45:15;;;;;;;5.90;2.33;;;;;;;;;;5097523;28;20928;-69
2023/09/14 03:47:41;;;;;;;6.53;2.50;;;;;;;;;;5097329;28;20391;-69
2023/09/14 03:50:08;;;;;;;5.80;3.08;;;;;;;;;;5100944;28;20028;-69
2023/09/14 03:52:35;;;;;;;5.28;3.25;;;;;;;;;;5103736;28;20526;-69
2023/09/14 03:55:01;;;;;;;7.93;3.38;;;;;;;;;;5104266;28;20028;-69
2023/09/14 03:57:28;;;;;;;6.45;2.60;;;;;;;;;;5098100;28;20073;-69
2023/09/14 03:59:54;;;;;;;6.45;2.47;;;;;;;;;;5098323;28;20024;-69
2023/09/14 04:02:20;;;;;;;8.48;2.47;;;;;;;;;;5100242;28;20034;-70
2023/09/14 04:04:47;;;;;;;8.23;2.83;;;;;;;;;;5101443;28;20490;-69
2023/09/14 04:07:13;;;;;;;7.00;2.50;;;;;;;;;;5103508;28;20110;-69
2023/09/14 04:09:41;;;;;;;9.13;2.63;;;;;;;;;;5105271;28;20088;-69
2023/09/14 04:12:07;;;;;;;6.20;3.13;;;;;;;;;;5105890;28;20471;-69
2023/09/14 04:14:34;;;;;;;11.88;2.83;;;;;;;;;;5102946;28;20084;-69
2023/09/14 04:17:01;;;;;;;10.82;3.00;;;;;;;;;;5106049;28;20108;-69
2023/09/14 04:19:30;;;;;;;7.28;2.55;;;;;;;;;;5097585;28;20039;-69
2023/09/14 04:21:56;;;;;;;9.23;3.60;;;;;;;;;;5092735;28;20035;-69
2023/09/14 04:24:23;;;;;;;7.57;2.72;;;;;;;;;;5094422;28;20027;-69
2023/09/14 04:26:49;;;;;;;8.48;2.58;;;;;;;;;;5105044;28;20031;-69
2023/09/14 04:29:15;;;;;;;8.80;2.55;;;;;;;;;;5105129;28;20023;-69
2023/09/14 04:31:41;;;;;;;8.05;3.15;;;;;;;;;;5096155;28;20027;-69
2023/09/14 04:34:08;;;;;;;4.40;2.40;;;;;;;;;;5105347;28;20028;-69
2023/09/14 04:36:35;;;;;;;10.30;2.83;;;;;;;;;;5109184;28;20049;-69
2023/09/14 04:39:02;;;;;;;9.38;3.13;;;;;;;;;;5105592;28;20035;-69
2023/09/14 04:41:28;;;;;;;6.97;2.72;;;;;;;;;;5104436;28;20037;-69
2023/09/14 04:43:54;;;;;;;8.82;3.60;;;;;;;;;;5108939;28;20668;-69
2023/09/14 04:46:20;;;;;;;6.97;2.95;;;;;;;;;;5109097;28;20024;-69
2023/09/14 04:48:48;;;;;;;6.47;2.90;;;;;;;;;;5103583;28;20072;-69
2023/09/14 04:51:14;;;;;;;9.65;2.90;;;;;;;;;;5106194;28;20063;-69
2023/09/14 04:53:40;;;;;;;6.85;3.60;;;;;;;;;;5107626;28;20028;-69
2023/09/14 04:56:06;;;;;;;10.07;2.90;;;;;;;;;;5106589;28;20036;-69
2023/09/14 04:58:32;;;;;;;5.95;2.78;;;;;;;;;;5096934;28;20047;-69
2023/09/14 05:00:58;;;;;;;8.80;2.80;;;;;;;;;;5101415;28;20070;-69
2023/09/14 05:03:24;;;;;;;8.98;2.80;;;;;;;;;;5084389;28;20471;-69
2023/09/14 05:05:54;;;;;;;8.63;2.30;;;;;;;;;;5108386;28;20030;-69
2023/09/14 05:08:21;;;;;;;8.73;3.10;;;;;;;;;;5088969;28;20114;-69
2023/09/14 05:10:51;;;;;;;7.40;3.03;;;;;;;;;;5098502;28;20084;-69
2023/09/14 05:13:20;;;;;;;10.25;3.35;;;;;;;;;;5101466;28;20119;-69
2023/09/14 05:15:47;;;;;;;3.75;2.72;;;;;;;;;;5107948;28;20096;-69
2023/09/14 05:18:13;;;;;;;5.85;2.83;;;;;;;;;;5088707;28;20067;-69
2023/09/14 05:20:43;;;;;;;7.38;3.13;;;;;;;;;;5084548;28;20328;-69
2023/09/14 05:23:09;;;;;;;6.82;3.13;;;;;;;;;;5103551;28;20083;-69
2023/09/14 05:25:35;;;;;;;6.15;3.00;;;;;;;;;;5101528;28;20506;-69
2023/09/14 05:28:02;;;;;;;9.50;3.40;;;;;;;;;;5101613;28;20395;-69
2023/09/14 05:30:28;;;;;;;6.20;2.85;;;;;;;;;;5102442;28;20155;-69
2023/09/14 05:32:54;;;;;;;6.13;3.17;;;;;;;;;;5107574;28;20110;-69
2023/09/14 05:35:20;;;;;;;7.40;2.65;;;;;;;;;;5103607;28;20047;-69
2023/09/14 05:37:46;;;;;;;7.82;2.80;;;;;;;;;;5105035;28;20069;-69
2023/09/14 05:40:12;;;;;;;6.38;3.13;;;;;;;;;;5103654;28;20877;-69
2023/09/14 05:42:39;;;;;;;6.75;2.83;;;;;;;;;;5095295;28;20053;-68
2023/09/14 05:45:06;;;;;;;9.07;4.35;;;;;;;;;;5103830;28;20262;-69
2023/09/14 05:47:32;;;;;;;14.68;3.78;;;;;;;;;;5102287;28;20059;-69
2023/09/14 05:49:59;;;;;;;6.30;2.83;;;;;;;;;;5099353;28;20054;-69
2023/09/14 05:52:25;;;;;;;8.20;3.40;;;;;;;;;;5099414;28;20035;-70
2023/09/14 05:54:51;;;;;;;8.02;2.85;;;;;;;;;;5104254;28;20031;-69
2023/09/14 05:57:17;;;;;;;8.60;2.83;;;;;;;;;;5104712;28;20024;-69
2023/09/14 05:59:43;;;;;;;9.40;3.30;;;;;;;;;;5104653;28;20143;-69
2023/09/14 06:02:09;;;;;;;9.30;2.88;;;;;;;;;;5098575;28;20110;-70
2023/09/14 06:04:35;;;;;;;10.27;2.75;;;;;;;;;;5100070;28;20387;-69
2023/09/14 06:07:02;;;;;;;5.32;2.90;;;;;;;;;;5104600;28;20030;-70
2023/09/14 06:09:29;;;;;;;9.55;3.15;;;;;;;;;;5094276;28;20136;-68
2023/09/14 06:11:55;;;;;;;7.57;3.13;;;;;;;;;;5081519;28;20024;-69
2023/09/14 06:14:22;;;;;;;7.88;2.70;;;;;;;;;;5082269;28;20039;-70
2023/09/14 06:16:48;;;;;;;7.95;2.85;;;;;;;;;;5102936;28;20112;-69
2023/09/14 06:19:14;;;;;;;12.13;3.15;;;;;;;;;;5101835;28;20076;-70
2023/09/14 06:21:40;;;;;;;6.25;3.00;;;;;;;;;;5098306;28;20108;-67
2023/09/14 06:24:06;;;;;;;12.27;2.80;;;;;;;;;;5084300;28;20242;-67
2023/09/14 06:26:32;;;;;;;8.48;3.00;;;;;;;;;;5082686;28;21171;-67
2023/09/14 06:28:58;;;;;;;6.80;2.78;;;;;;;;;;5101932;28;20024;-67
2023/09/14 06:31:25;;;;;;;8.40;3.97;;;;;;;;;;5100127;28;20088;-68
2023/09/14 06:33:51;;;;;;;7.25;2.47;;;;;;;;;;5099012;28;20036;-68
2023/09/14 06:36:18;;;;;;;5.47;2.78;;;;;;;;;;5102207;28;20027;-68
2023/09/14 06:38:48;;;;;;;12.20;2.70;;;;;;;;;;5096464;28;20360;-68
2023/09/14 06:41:14;;;;;;;7.60;2.63;;;;;;;;;;5096883;28;20035;-68
2023/09/14 06:43:46;;;;;;;8.18;2.53;;;;;;;;;;5098514;28;20651;-68
2023/09/14 06:46:13;;;;;;;8.10;3.42;;;;;;;;;;5099135;28;20498;-68
2023/09/14 06:48:39;;;;;;;18.98;4.75;;;;;;;;;;5099474;27;20020;-68
2023/09/14 06:51:06;;;;;;;6.85;3.42;;;;;;;;;;5076381;28;20395;-68
2023/09/14 06:53:33;;;;;;;7.18;2.80;;;;;;;;;;5088494;28;20037;-69
2023/09/14 06:56:05;;;;;;;7.90;2.92;;;;;;;;;;5098019;28;20498;-68
2023/09/14 06:58:31;;;;;;;7.22;3.75;;;;;;;;;;5097877;28;20027;-68
2023/09/14 07:01:01;;;;;;;9.10;3.00;;;;;;;;;;5098567;28;20518;-68
2023/09/14 07:03:27;;;;;;;9.68;2.80;;;;;;;;;;5102311;28;20087;-68
2023/09/14 07:05:53;;;;;;;11.95;3.85;;;;;;;;;;5097767;28;20031;-69
2023/09/14 07:08:19;;;;;;;10.32;3.63;;;;;;;;;;5100965;28;20061;-68
2023/09/14 07:10:45;;;;;;;7.55;2.70;;;;;;;;;;5095862;28;20020;-68
2023/09/14 07:13:14;;;;;;;4.72;2.70;;;;;;;;;;5104202;28;20019;-68
2023/09/14 07:15:41;;;;;;;9.13;2.50;;;;;;;;;;5101686;28;20035;-68
2023/09/14 07:18:07;;;;;;;7.72;3.13;;;;;;;;;;5097128;28;20027;-68
2023/09/14 07:20:33;;;;;;;4.65;2.78;;;;;;;;;;5096996;28;20074;-69
2023/09/14 07:22:59;;;;;;;5.20;2.45;;;;;;;;;;5075519;28;20024;-71
2023/09/14 07:25:25;;;;;;;7.20;2.70;;;;;;;;;;5100522;28;20020;-68
2023/09/14 07:27:52;;;;;;;10.07;2.85;;;;;;;;;;5097955;28;20046;-70
2023/09/14 07:30:18;;;;;;;8.27;3.03;;;;;;;;;;5094121;28;20129;-70
2023/09/14 07:32:44;;;;;;;9.10;2.60;;;;;;;;;;5097600;28;20404;-68
2023/09/14 07:35:11;;;;;;;5.13;2.67;;;;;;;;;;5092197;28;20020;-68
2023/09/14 07:37:37;;;;;;;8.93;3.13;;;;;;;;;;5085412;28;20453;-67
2023/09/14 07:40:04;;;;;;;10.18;2.72;;;;;;;;;;5098108;28;20020;-69
2023/09/14 07:42:30;;;;;;;8.70;2.58;;;;;;;;;;5098083;28;20761;-68
2023/09/14 07:44:57;;;;;;;7.57;2.72;;;;;;;;;;5099636;28;20024;-68
2023/09/14 07:47:28;;;;;;;5.63;2.58;;;;;;;;;;5102203;28;20121;-67
2023/09/14 07:49:54;;;;;;;10.43;2.55;;;;;;;;;;5097117;28;20038;-70
2023/09/14 07:52:21;;;;;;;9.98;3.85;;;;;;;;;;5104342;28;20027;-72
2023/09/14 07:54:48;;;;;;;6.90;2.80;;;;;;;;;;5101250;28;20032;-72
2023/09/14 07:57:14;;;;;;;5.97;3.05;;;;;;;;;;5102111;28;20786;-72
2023/09/14 07:59:40;;;;;;;6.25;3.13;;;;;;;;;;5103035;28;20055;-71
2023/09/14 08:02:07;;;;;;;10.05;2.75;;;;;;;;;;5084884;28;20445;-72
2023/09/14 08:04:34;;;;;;;9.75;2.50;;;;;;;;;;5082240;28;20019;-72
2023/09/14 08:07:00;;;;;;;4.47;2.35;;;;;;;;;;5099658;28;20023;-72
2023/09/14 08:09:26;;;;;;;6.63;2.40;;;;;;;;;;5077618;28;20237;-72
2023/09/14 08:11:53;;;;;;;8.88;2.20;;;;;;;;;;5100187;28;20108;-70
2023/09/14 08:14:19;;;;;;;7.22;2.40;;;;;;;;;;5103100;28;20032;-73
2023/09/14 08:16:45;;;;;;;4.80;2.42;;;;;;;;;;5098222;28;20159;-71
2023/09/14 08:19:11;;;;;;;5.32;2.53;;;;;;;;;;5099870;28;20521;-70
2023/09/14 08:21:37;;;;;;;5.13;2.30;;;;;;;;;;5098697;28;20410;-71
2023/09/14 08:24:04;;;;;;;7.43;2.85;;;;;;;;;;5104324;28;20574;-71
2023/09/14 08:26:30;;;;;;;4.85;2.75;;;;;;;;;;5096917;28;20028;-68
2023/09/14 08:28:56;;;;;;;5.63;2.35;;;;;;;;;;5112280;28;20035;-69
2023/09/14 08:31:23;;;;;;;5.32;2.58;;;;;;;;;;5090191;28;20035;-69
2023/09/14 08:33:49;;;;;;;4.70;2.33;;;;;;;;;;5091818;28;20119;-69
2023/09/14 08:36:15;;;;;;;5.97;2.65;;;;;;;;;;5108462;28;20032;-69
2023/09/14 08:38:42;;;;;;;5.68;2.15;;;;;;;;;;5104890;28;20031;-69
2023/09/14 08:41:21;;;;;;;5.97;2.55;;;;;;;;;;5112663;28;20035;-69
2023/09/14 08:43:48;;;;;;;2.70;1.98;;;;;;;;;;5087790;28;20059;-69
2023/09/14 08:46:16;;;;;;;6.20;2.35;;;;;;;;;;5085027;28;20023;-69
2023/09/14 08:48:48;;;;;;;3.85;2.45;;;;;;;;;;5096936;28;20024;-69
2023/09/14 08:51:15;;;;;;;4.40;2.30;;;;;;;;;;5089839;28;20145;-66
2023/09/14 08:53:41;;;;;;;11.43;3.63;;;;;;;;;;5102958;28;20074;-67
2023/09/14 08:56:09;;;;;;;6.85;2.05;;;;;;;;;;5099491;28;20057;-68
2023/09/14 08:58:35;;;;;;;9.45;2.63;;;;;;;;;;5100367;28;20080;-67
2023/09/14 09:01:02;;;;;;;5.43;2.70;;;;;;;;;;5100992;28;20033;-66
2023/09/14 09:03:35;;;;;;;4.78;2.20;;;;;;;;;;5101283;27;20020;-67
2023/09/14 09:06:01;;;;;;;5.35;2.40;;;;;;;;;;5099608;28;20399;-66
2023/09/14 09:08:28;;;;;;;4.18;2.20;;;;;;;;;;5099891;28;20028;-66
2023/09/14 09:10:54;;;;;;;8.60;2.53;;;;;;;;;;5098520;28;20028;-66
2023/09/14 09:13:22;;;;;;;11.68;2.67;;;;;;;;;;5101156;28;20089;-66
2023/09/14 09:15:48;;;;;;;6.97;2.38;;;;;;;;;;5103136;28;20507;-67
2023/09/14 09:18:14;;;;;;;8.57;3.05;;;;;;;;;;5099229;28;20024;-68
2023/09/14 09:20:41;;;;;;;3.38;2.03;;;;;;;;;;5106481;28;20331;-68
2023/09/14 09:23:08;;;;;;;5.15;2.65;;;;;;;;;;5104983;28;20455;-68
2023/09/14 09:25:50;;;;;;;8.65;3.17;;;;;;;;;;5081519;28;20491;-67
2023/09/14 09:28:17;;;;;;;6.43;2.90;;;;;;;;;;5102606;28;20180;-67
2023/09/14 09:30:44;;;;;;;6.13;2.50;;;;;;;;;;5103609;28;20058;-66
2023/09/14 09:33:10;;;;;;;6.88;3.50;;;;;;;;;;5089310;28;20284;-67
2023/09/14 09:35:36;;;;;;;3.47;2.15;;;;;;;;;;5097058;28;20031;-65
2023/09/14 09:38:15;;;;;;;4.47;2.30;;;;;;;;;;5103072;28;20028;-65
2023/09/14 09:40:43;;;;;;;5.88;2.95;;;;;;;;;;5100933;28;20035;-67
2023/09/14 09:43:10;;;;;;;5.82;2.20;;;;;;;;;;5101736;28;20519;-67
2023/09/14 09:45:40;;;;;;;2.83;1.98;;;;;;;;;;5099491;28;20024;-67
2023/09/14 09:48:08;;;;;;;8.13;3.30;;;;;;;;;;5076883;28;20051;-65
2023/09/14 09:50:34;;;;;;;6.22;2.30;;;;;;;;;;5101189;28;20019;-65
2023/09/14 09:53:01;;;;;;;6.68;1.92;;;;;;;;;;5098627;28;20413;-64
2023/09/14 09:55:28;;;;;;;9.82;2.13;;;;;;;;;;5083162;28;20035;-68
2023/09/14 09:57:57;;;;;;;5.93;2.30;;;;;;;;;;5103074;28;20032;-66
2023/09/14 10:00:28;;;;;;;2.85;1.88;;;;;;;;;;5103015;28;20079;-67
2023/09/14 10:02:54;;;;;;;6.22;2.13;;;;;;;;;;5096790;28;20036;-65
2023/09/14 10:05:28;;;;;;;6.15;2.22;;;;;;;;;;5098415;28;20146;-66
2023/09/14 10:07:54;;;;;;;3.28;2.30;;;;;;;;;;5099480;28;20495;-67
2023/09/14 10:10:26;;;;;;;6.05;2.03;;;;;;;;;;5106039;28;20051;-68
2023/09/14 10:12:56;;;;;;;7.05;1.90;;;;;;;;;;5103518;28;20070;-68
2023/09/14 10:15:24;;;;;;;5.28;1.85;;;;;;;;;;5103399;28;20069;-68
2023/09/14 10:17:52;;;;;;;3.10;1.90;;;;;;;;;;5094622;28;20027;-68
2023/09/14 10:20:18;;;;;;;3.78;1.83;;;;;;;;;;5101501;28;20034;-67
2023/09/14 10:22:47;;;;;;;3.97;1.83;;;;;;;;;;5106080;27;20032;-66
2023/09/14 10:25:13;;;;;;;6.63;2.00;;;;;;;;;;5109526;28;20101;-65
2023/09/14 10:27:40;;;;;;;4.38;2.00;;;;;;;;;;5085988;28;20545;-67
2023/09/14 10:33:17;;;;;;;4.85;2.00;;;;;;;;;;5091420;28;20027;-66
2023/09/14 10:35:43;;;;;;;6.35;1.95;;;;;;;;;;5098293;28;20071;-66
2023/09/14 10:38:11;;;;;;;6.25;2.10;;;;;;;;;;5101328;27;20039;-66
2023/09/14 10:40:37;;;;;;;4.10;2.20;;;;;;;;;;5100983;28;20490;-66
2023/09/14 10:43:04;;;;;;;5.95;2.28;;;;;;;;;;5096866;28;20126;-66
2023/09/14 10:45:38;;;;;;;6.63;2.30;;;;;;;;;;5101641;28;20054;-66
2023/09/14 10:48:09;;;;;;;6.80;2.65;;;;;;;;;;5096723;28;20019;-65
2023/09/14 10:50:35;;;;;;;3.90;2.03;;;;;;;;;;5098837;28;20015;-66
2023/09/14 10:53:02;;;;;;;6.82;2.53;;;;;;;;;;5085400;28;20028;-66
2023/09/14 10:55:28;;;;;;;3.13;1.92;;;;;;;;;;5078949;28;20556;-66
2023/09/14 10:57:54;;;;;;;2.50;2.30;;;;;;;;;;5092865;28;20190;-65
2023/09/14 11:00:48;;;;;;;3.28;2.50;;;;;;;;;;5095192;28;20027;-66
2023/09/14 11:03:14;;;;;;;2.55;2.00;;;;;;;;;;5099118;28;20039;-66
2023/09/14 11:05:46;;;;;;;2.55;2.20;;;;;;;;;;5108974;28;20019;-66
2023/09/14 11:08:14;;;;;;;3.33;1.95;;;;;;;;;;5083527;28;20038;-66
2023/09/14 11:10:53;;;;;;;4.68;2.13;;;;;;;;;;5085430;28;20102;-66
2023/09/14 11:13:22;;;;;;;4.25;2.13;;;;;;;;;;5109901;28;20077;-66
2023/09/14 11:16:07;;;;;;;3.25;1.90;;;;;;;;;;5106865;28;20040;-66
2023/09/14 11:18:35;;;;;;;3.35;1.90;;;;;;;;;;5104221;28;20031;-66
2023/09/14 11:21:01;;;;;;;2.13;1.90;;;;;;;;;;5102730;28;20039;-66
2023/09/14 11:23:36;;;;;;;3.22;2.00;;;;;;;;;;5106668;28;20044;-67
2023/09/14 11:26:02;;;;;;;3.65;1.95;;;;;;;;;;5104867;28;20101;-66
2023/09/14 11:28:29;;;;;;;3.83;2.30;;;;;;;;;;5098356;28;20532;-66
2023/09/14 11:30:56;;;;;;;5.22;1.77;;;;;;;;;;5101506;28;20024;-66
2023/09/14 11:33:23;;;;;;;2.90;1.65;;;;;;;;;;5101833;28;20023;-66
2023/09/14 11:35:51;;;;;;;3.58;1.67;;;;;;;;;;5078995;28;20158;-66
2023/09/14 11:38:24;;;;;;;4.72;1.98;;;;;;;;;;5099700;28;20024;-66
2023/09/14 11:40:50;;;;;;;5.95;1.95;;;;;;;;;;5102687;28;20023;-66
2023/09/14 11:43:21;;;;;;;2.70;1.60;;;;;;;;;;5094697;28;20028;-65
2023/09/14 11:45:52;;;;;;;2.15;1.80;;;;;;;;;;5096707;28;20024;-65
2023/09/14 11:48:18;;;;;;;3.55;1.80;;;;;;;;;;5092870;28;20043;-65
2023/09/14 11:50:45;;;;;;;3.42;1.70;;;;;;;;;;5088764;28;20043;-66
2023/09/14 11:53:16;;;;;;;5.25;2.03;;;;;;;;;;5094141;28;20471;-66
2023/09/14 11:55:42;;;;;;;5.32;2.13;;;;;;;;;;5097978;28;20157;-66
2023/09/14 11:58:08;;;;;;;2.92;2.15;;;;;;;;;;5094590;28;20031;-67
2023/09/14 12:00:38;;;;;;;3.17;2.10;;;;;;;;;;5088329;28;20888;-65
2023/09/14 12:03:04;;;;;;;4.00;2.17;;;;;;;;;;5098844;28;20028;-65
2023/09/14 12:05:31;;;;;;;2.08;1.88;;;;;;;;;;5098443;28;20769;-66
2023/09/14 12:07:57;;;;;;;3.83;1.77;;;;;;;;;;5095080;28;20020;-65
2023/09/14 12:10:23;;;;;;;4.05;1.63;;;;;;;;;;5090542;28;20471;-67
2023/09/14 12:12:50;;;;;;;3.00;1.60;;;;;;;;;;5083897;28;20043;-65
2023/09/14 12:15:23;;;;;;;2.47;1.52;;;;;;;;;;5097491;28;20075;-65
2023/09/14 12:17:52;;;;;;;3.55;1.75;;;;;;;;;;5091328;28;20040;-65
2023/09/14 12:20:19;;;;;;;3.60;1.65;;;;;;;;;;5096607;28;20024;-66
2023/09/14 12:22:46;;;;;;;3.45;1.70;;;;;;;;;;5090413;28;20487;-66
2023/09/14 12:25:14;;;;;;;4.25;1.52;;;;;;;;;;5093669;28;20091;-66
2023/09/14 12:27:40;;;;;;;3.88;1.70;;;;;;;;;;5096122;28;20514;-66
2023/09/14 12:30:08;;;;;;;6.18;1.80;;;;;;;;;;5100515;28;20475;-66
2023/09/14 12:32:35;;;;;;;4.05;1.48;;;;;;;;;;5100818;28;20042;-66
2023/09/14 12:35:01;;;;;;;4.05;1.77;;;;;;;;;;5106971;28;20090;-66
2023/09/14 12:37:28;;;;;;;2.30;1.50;;;;;;;;;;5094051;28;20030;-66
2023/09/14 12:39:54;;;;;;;7.18;1.73;;;;;;;;;;5101166;28;20020;-66
2023/09/14 12:42:21;;;;;;;2.70;1.80;;;;;;;;;;5099385;28;20174;-66
2023/09/14 12:44:49;;;;;;;3.30;1.98;;;;;;;;;;5105818;28;20023;-66
2023/09/14 12:47:15;;;;;;;5.47;1.50;;;;;;;;;;5100637;27;20608;-67
2023/09/14 12:49:41;;;;;;;4.45;1.85;;;;;;;;;;5091841;28;20480;-67
2023/09/14 12:52:08;;;;;;;2.08;1.70;;;;;;;;;;5083900;28;20031;-66
2023/09/14 12:54:38;;;;;;;5.25;2.05;;;;;;;;;;5092217;28;20075;-65
2023/09/14 12:57:10;;;;;;;3.42;1.73;;;;;;;;;;5099053;28;20039;-66
2023/09/14 12:59:37;;;;;;;6.05;1.90;;;;;;;;;;5082901;28;20353;-65
2023/09/14 13:02:04;;;;;;;2.50;1.45;;;;;;;;;;5103651;28;20487;-65
2023/09/14 13:04:30;;;;;;;2.88;2.00;;;;;;;;;;5100928;28;20053;-65
2023/09/14 13:06:57;;;;;;;1.80;1.60;;;;;;;;;;5085078;28;20063;-64
2023/09/14 13:09:24;;;;;;;3.65;1.80;;;;;;;;;;5084218;28;20028;-65
2023/09/14 13:11:53;;;;;;;2.55;1.95;;;;;;;;;;5099901;28;20114;-64
2023/09/14 13:14:22;;;;;;;4.68;1.85;;;;;;;;;;5100744;28;20027;-64
2023/09/14 13:16:58;;;;;;;4.63;1.88;;;;;;;;;;5097042;28;20055;-65
2023/09/14 13:19:25;;;;;;;2.65;1.90;;;;;;;;;;5099259;28;20058;-65
2023/09/14 13:21:52;;;;;;;3.05;1.67;;;;;;;;;;5098156;28;20488;-65
2023/09/14 13:24:18;;;;;;;4.88;1.90;;;;;;;;;;5103981;28;20387;-65
2023/09/14 13:26:44;;;;;;;4.72;1.80;;;;;;;;;;5096586;28;20026;-65
2023/09/14 13:29:10;;;;;;;3.80;1.85;;;;;;;;;;5105803;28;20024;-64
2023/09/14 13:31:41;;;;;;;3.15;1.80;;;;;;;;;;5096795;28;20080;-64
2023/09/14 13:34:07;;;;;;;8.07;2.30;;;;;;;;;;5102730;28;20027;-64
2023/09/14 13:36:34;;;;;;;2.20;1.90;;;;;;;;;;5103418;28;20395;-65
2023/09/14 13:39:00;;;;;;;4.95;2.25;;;;;;;;;;5079141;28;20041;-63
2023/09/14 13:41:30;;;;;;;5.60;2.20;;;;;;;;;;5106605;28;20123;-65
2023/09/14 13:43:56;;;;;;;3.35;1.92;;;;;;;;;;5101709;28;20322;-65
2023/09/14 13:46:22;;;;;;;2.83;1.98;;;;;;;;;;5084790;28;20032;-65
2023/09/14 13:48:53;;;;;;;6.90;1.85;;;;;;;;;;5097944;28;20030;-64
2023/09/14 13:51:20;;;;;;;3.17;1.80;;;;;;;;;;5081423;28;20422;-63
2023/09/14 13:53:46;;;;;;;3.63;1.73;;;;;;;;;;5092006;28;20399;-66
2023/09/14 13:56:12;;;;;;;4.70;1.90;;;;;;;;;;5096154;28;20079;-64
2023/09/14 13:58:40;;;;;;;3.58;1.80;;;;;;;;;;5080344;28;20040;-68
2023/09/14 14:01:12;;;;;;;4.97;2.00;;;;;;;;;;5100329;28;20027;-65
2023/09/14 14:03:39;;;;;;;3.92;1.75;;;;;;;;;;5101061;28;20020;-65
2023/09/14 14:06:05;;;;;;;2.97;2.03;;;;;;;;;;5099908;28;20391;-65
2023/09/14 14:08:31;;;;;;;2.80;2.22;;;;;;;;;;5095534;28;20020;-65
2023/09/14 14:10:57;;;;;;;3.70;2.00;;;;;;;;;;5099987;28;20110;-65
2023/09/14 14:13:24;;;;;;;4.80;2.00;;;;;;;;;;5101564;28;20028;-66
2023/09/14 14:15:50;;;;;;;2.88;1.98;;;;;;;;;;5094358;28;20089;-64
2023/09/14 14:18:17;;;;;;;4.55;2.00;;;;;;;;;;5076098;28;20052;-64
2023/09/14 14:20:44;;;;;;;3.13;1.90;;;;;;;;;;5076138;28;20032;-66
2023/09/14 14:23:10;;;;;;;5.63;1.92;;;;;;;;;;5077700;28;20791;-65
2023/09/14 14:25:37;;;;;;;5.18;1.70;;;;;;;;;;5074834;28;20402;-65
2023/09/14 14:28:03;;;;;;;3.28;1.92;;;;;;;;;;5063530;28;20035;-67
2023/09/14 14:30:29;;;;;;;5.13;2.30;;;;;;;;;;5073533;28;20024;-65
2023/09/14 14:32:57;;;;;;;4.93;2.80;;;;;;;;;;5074585;28;20028;-65
2023/09/14 14:35:23;;;;;;;4.22;2.03;;;;;;;;;;5077728;28;20032;-66
2023/09/14 14:37:49;;;;;;;5.07;1.90;;;;;;;;;;5078496;28;20036;-65
2023/09/14 14:40:17;;;;;;;2.60;1.70;;;;;;;;;;5081275;28;20512;-65
2023/09/14 14:42:43;;;;;;;2.28;1.95;;;;;;;;;;5073394;28;20036;-64
2023/09/14 14:45:10;;;;;;;4.03;1.90;;;;;;;;;;5078109;28;20531;-65